createdAt,value
2023-03-30T00:01:30.612Z,8.30
2023-03-30T00:03:59.126Z,7.60
2023-03-30T00:06:26.550Z,8.50
2023-03-30T00:08:57.995Z,7.60
2023-03-30T00:11:26.829Z,8.18
2023-03-30T00:13:54.523Z,8.32
2023-03-30T00:16:23.038Z,7.93
2023-03-30T00:18:50.706Z,8.55
2023-03-30T00:21:20.580Z,8.20
2023-03-30T00:23:48.969Z,8.85
2023-03-30T00:26:17.599Z,8.80
2023-03-30T00:28:46.068Z,8.77
2023-03-30T00:31:13.465Z,8.60
2023-03-30T00:33:46.355Z,8.48
2023-03-30T00:36:15.866Z,9.32
2023-03-30T00:38:44.081Z,9.10
2023-03-30T00:41:12.263Z,8.80
2023-03-30T00:44:01.146Z,8.73
2023-03-30T00:46:31.301Z,9.52
2023-03-30T00:49:05.086Z,9.43
2023-03-30T00:51:39.108Z,9.30
2023-03-30T00:54:15.755Z,9.48
2023-03-30T00:56:43.253Z,8.75
2023-03-30T00:59:11.229Z,9.65
2023-03-30T01:01:40.879Z,8.65
2023-03-30T01:04:10.110Z,9.50
2023-03-30T01:06:40.341Z,8.55
2023-03-30T01:09:08.618Z,8.20
2023-03-30T01:11:36.522Z,8.35
2023-03-30T01:14:07.692Z,8.57
2023-03-30T01:17:05.851Z,8.57
2023-03-30T01:19:52.054Z,8.50
2023-03-30T01:22:53.191Z,8.93
2023-03-30T01:25:56.518Z,8.05
2023-03-30T01:28:47.529Z,8.30
2023-03-30T01:31:36.639Z,8.50
2023-03-30T01:34:07.197Z,8.77
2023-03-30T01:36:46.391Z,8.57
2023-03-30T01:39:29.261Z,8.93
2023-03-30T01:42:05.513Z,9.10
2023-03-30T01:44:37.459Z,9.40
2023-03-30T01:47:29.178Z,8.00
2023-03-30T01:50:08.785Z,8.20
2023-03-30T01:53:09.041Z,8.13
2023-03-30T01:56:00.447Z,7.60
2023-03-30T01:58:39.537Z,7.95
2023-03-30T02:01:08.058Z,8.57
2023-03-30T02:03:39.613Z,8.73
2023-03-30T02:06:40.755Z,8.60
2023-03-30T02:09:12.733Z,8.00
2023-03-30T02:14:12.151Z,7.78
2023-03-30T02:17:03.662Z,7.75
2023-03-30T02:19:31.737Z,8.05
2023-03-30T02:22:01.180Z,8.18
2023-03-30T02:24:31.583Z,7.90
2023-03-30T02:27:02.098Z,8.13
2023-03-30T02:29:31.015Z,7.40
2023-03-30T02:31:59.616Z,8.45
2023-03-30T02:34:30.058Z,8.18
2023-03-30T02:37:30.214Z,7.78
2023-03-30T02:40:17.154Z,8.35
2023-03-30T02:43:00.481Z,8.93
2023-03-30T02:45:53.563Z,7.88
2023-03-30T02:48:27.476Z,8.77
2023-03-30T02:51:10.093Z,7.65
2023-03-30T02:54:07.661Z,7.75
2023-03-30T02:56:58.219Z,8.85
2023-03-30T02:59:46.208Z,8.50
2023-03-30T03:02:20.164Z,7.88
2023-03-30T03:04:53.467Z,7.78
2023-03-30T03:07:35.606Z,8.68
2023-03-30T03:10:03.223Z,8.82
2023-03-30T03:12:30.548Z,8.60
2023-03-30T03:14:57.904Z,9.32
2023-03-30T03:17:29.615Z,9.82
2023-03-30T03:19:57.023Z,9.77
2023-03-30T03:22:24.409Z,11.25
2023-03-30T03:24:52.319Z,10.57
2023-03-30T03:27:42.829Z,11.68
2023-03-30T03:30:18.450Z,12.00
2023-03-30T03:32:53.852Z,12.57
2023-03-30T03:35:21.786Z,12.57
2023-03-30T03:37:49.439Z,12.82
2023-03-30T03:40:16.799Z,11.35
2023-03-30T03:42:44.912Z,11.85
2023-03-30T03:45:14.293Z,11.45
2023-03-30T03:47:57.204Z,12.13
2023-03-30T03:50:41.898Z,12.30
2023-03-30T03:53:11.851Z,11.70
2023-03-30T03:55:39.176Z,13.55
2023-03-30T03:58:07.458Z,13.15
2023-03-30T04:00:34.936Z,13.98
2023-03-30T04:03:04.456Z,16.13
2023-03-30T04:05:32.590Z,15.93
2023-03-30T04:07:59.971Z,14.98
2023-03-30T04:10:27.615Z,15.48
2023-03-30T04:13:04.850Z,15.82
2023-03-30T04:15:58.697Z,16.35
2023-03-30T04:18:31.486Z,17.00
2023-03-30T04:21:22.971Z,15.35
2023-03-30T04:24:04.858Z,15.65
2023-03-30T04:26:48.918Z,16.23
2023-03-30T04:29:31.297Z,16.42
2023-03-30T04:32:22.700Z,16.60
2023-03-30T04:35:14.263Z,15.77
2023-03-30T04:38:04.145Z,15.68
2023-03-30T04:40:47.030Z,16.15
2023-03-30T04:43:38.148Z,16.20
2023-03-30T04:46:28.681Z,17.30
2023-03-30T04:49:12.374Z,18.05
2023-03-30T04:52:18.824Z,16.98
2023-03-30T04:55:11.759Z,16.52
2023-03-30T04:57:57.487Z,16.65
2023-03-30T05:00:58.122Z,16.25
2023-03-30T05:03:44.225Z,17.50
2023-03-30T05:06:34.943Z,16.27
2023-03-30T05:09:24.866Z,16.60
2023-03-30T05:12:09.477Z,15.07
2023-03-30T05:14:55.646Z,15.63
2023-03-30T05:17:40.998Z,15.55
2023-03-30T05:20:26.936Z,15.48
2023-03-30T05:23:00.433Z,16.02
2023-03-30T05:25:51.364Z,16.55
2023-03-30T05:28:48.329Z,16.17
2023-03-30T05:31:34.397Z,14.85
2023-03-30T05:34:30.885Z,15.05
2023-03-30T05:37:21.634Z,15.38
2023-03-30T05:40:18.311Z,15.68
2023-03-30T05:43:04.264Z,15.68
2023-03-30T05:45:51.961Z,15.43
2023-03-30T05:48:45.658Z,15.70
2023-03-30T05:51:30.626Z,15.50
2023-03-30T05:54:16.644Z,14.57
2023-03-30T05:57:07.303Z,15.98
2023-03-30T05:59:56.925Z,15.23
2023-03-30T06:03:03.138Z,14.60
2023-03-30T06:05:35.328Z,14.52
2023-03-30T06:08:04.548Z,15.35
2023-03-30T06:10:32.242Z,15.00
2023-03-30T06:12:59.660Z,14.45
2023-03-30T06:15:49.867Z,15.38
2023-03-30T06:18:21.387Z,15.63
2023-03-30T06:21:11.687Z,15.85
2023-03-30T06:23:58.001Z,15.75
2023-03-30T06:26:28.663Z,14.68
2023-03-30T06:28:56.253Z,15.98
2023-03-30T06:31:24.373Z,15.85
2023-03-30T06:34:01.664Z,16.13
2023-03-30T06:36:44.895Z,15.65
2023-03-30T06:39:15.261Z,14.48
2023-03-30T06:41:42.662Z,16.75
2023-03-30T06:44:25.385Z,16.05
2023-03-30T06:46:53.264Z,14.95
2023-03-30T06:49:20.794Z,16.00
2023-03-30T06:52:11.594Z,14.13
2023-03-30T06:54:39.381Z,14.73
2023-03-30T06:57:07.984Z,14.57
2023-03-30T06:59:35.466Z,15.07
2023-03-30T07:02:21.853Z,15.90
2023-03-30T07:04:50.255Z,14.98
2023-03-30T07:07:26.987Z,15.30
2023-03-30T07:09:54.514Z,15.68
2023-03-30T07:12:23.879Z,16.25
2023-03-30T07:14:52.059Z,14.90
2023-03-30T07:17:19.453Z,15.95
2023-03-30T07:19:46.788Z,15.50
2023-03-30T07:22:14.504Z,15.63
2023-03-30T07:24:42.078Z,15.90
2023-03-30T07:27:09.453Z,15.77
2023-03-30T07:29:38.395Z,16.08
2023-03-30T07:32:05.818Z,16.23
2023-03-30T07:34:33.711Z,15.80
2023-03-30T07:37:01.765Z,13.85
2023-03-30T07:39:33.960Z,14.35
2023-03-30T07:42:03.101Z,13.75
2023-03-30T07:44:30.904Z,12.85
2023-03-30T07:47:06.829Z,13.85
2023-03-30T07:49:35.443Z,13.02
2023-03-30T07:52:02.778Z,14.80
2023-03-30T07:57:17.609Z,13.23
2023-03-30T07:59:45.044Z,13.30
2023-03-30T08:02:27.207Z,13.10
2023-03-30T08:04:56.081Z,12.77
2023-03-30T08:07:30.351Z,13.00
2023-03-30T08:10:08.178Z,14.60
2023-03-30T08:12:35.559Z,13.75
2023-03-30T08:15:04.077Z,12.60
2023-03-30T08:17:31.550Z,12.18
2023-03-30T08:19:58.944Z,11.63
2023-03-30T08:22:26.286Z,11.55
2023-03-30T08:24:53.626Z,11.18
2023-03-30T08:27:21.077Z,11.95
2023-03-30T08:29:49.005Z,11.75
2023-03-30T08:32:16.490Z,11.90
2023-03-30T08:34:44.729Z,11.90
2023-03-30T08:37:12.474Z,12.50
2023-03-30T08:39:39.963Z,11.75
2023-03-30T08:42:25.288Z,11.45
2023-03-30T08:44:55.970Z,11.35
2023-03-30T08:47:45.025Z,11.52
2023-03-30T08:50:16.961Z,11.40
2023-03-30T08:52:44.961Z,10.95
2023-03-30T08:55:24.355Z,10.73
2023-03-30T08:57:59.622Z,10.57
2023-03-30T09:01:08.342Z,11.25
2023-03-30T09:03:59.431Z,10.57
2023-03-30T09:06:51.304Z,10.80
2023-03-30T09:09:21.686Z,11.35
2023-03-30T09:11:56.157Z,11.27
2023-03-30T09:14:34.912Z,11.07
2023-03-30T09:17:09.837Z,10.50
2023-03-30T09:19:49.485Z,11.85
2023-03-30T09:22:19.571Z,10.60
2023-03-30T09:24:47.275Z,10.50
2023-03-30T09:27:22.576Z,10.68
2023-03-30T09:29:53.274Z,10.80
2023-03-30T09:32:27.301Z,9.75
2023-03-30T09:35:21.680Z,10.73
2023-03-30T09:37:49.064Z,10.05
2023-03-30T09:40:34.375Z,10.90
2023-03-30T09:43:08.237Z,9.57
2023-03-30T09:45:36.570Z,10.30
2023-03-30T09:48:09.002Z,10.10
2023-03-30T09:50:45.426Z,9.75
2023-03-30T09:53:26.354Z,9.23
2023-03-30T09:56:07.161Z,9.75
2023-03-30T09:58:35.214Z,10.32
2023-03-30T10:01:09.181Z,10.70
2023-03-30T10:03:36.802Z,9.02
2023-03-30T10:06:19.608Z,10.38
2023-03-30T10:08:52.489Z,9.38
2023-03-30T10:11:22.052Z,10.68
2023-03-30T10:13:51.662Z,9.52
2023-03-30T10:16:27.123Z,10.27
2023-03-30T10:18:59.593Z,9.55
2023-03-30T10:21:32.327Z,10.70
2023-03-30T10:24:22.187Z,10.18
2023-03-30T10:26:57.088Z,9.93
2023-03-30T10:29:28.275Z,9.70
2023-03-30T10:32:00.614Z,9.60
2023-03-30T10:34:34.182Z,8.80
2023-03-30T10:37:06.792Z,9.55
2023-03-30T10:39:36.072Z,9.35
2023-03-30T10:42:05.565Z,9.43
2023-03-30T10:44:41.847Z,9.50
2023-03-30T10:47:31.381Z,9.82
2023-03-30T10:50:22.892Z,9.18
2023-03-30T10:53:22.620Z,8.80
2023-03-30T10:56:46.356Z,9.60
2023-03-30T10:59:31.437Z,9.15
2023-03-30T11:02:01.572Z,8.90
2023-03-30T11:04:38.759Z,9.52
2023-03-30T11:07:18.034Z,9.38
2023-03-30T11:09:53.513Z,8.23
2023-03-30T11:12:23.321Z,9.18
2023-03-30T11:14:57.044Z,9.30
2023-03-30T11:17:30.576Z,8.88
2023-03-30T11:20:01.739Z,8.88
2023-03-30T11:22:38.378Z,7.97
2023-03-30T11:25:19.349Z,7.93
2023-03-30T11:28:09.364Z,8.50
2023-03-30T11:30:37.441Z,8.13
2023-03-30T11:33:19.784Z,8.07
2023-03-30T11:35:54.061Z,8.38
2023-03-30T11:38:55.774Z,8.18
2023-03-30T11:41:31.609Z,7.57
2023-03-30T11:43:59.055Z,8.18
2023-03-30T11:46:35.629Z,8.25
2023-03-30T11:49:27.560Z,8.40
2023-03-30T11:52:06.693Z,8.25
2023-03-30T11:55:04.212Z,8.07
2023-03-30T11:57:35.908Z,7.45
2023-03-30T12:00:36.175Z,8.13
2023-03-30T12:03:42.577Z,8.35
2023-03-30T12:06:25.864Z,8.40
2023-03-30T12:09:05.904Z,7.50
2023-03-30T12:11:41.597Z,7.93
2023-03-30T12:14:30.653Z,8.18
2023-03-30T12:17:04.187Z,9.05
2023-03-30T12:19:55.495Z,8.30
2023-03-30T12:22:29.139Z,8.27
2023-03-30T12:25:06.306Z,8.15
2023-03-30T12:27:37.190Z,7.82
2023-03-30T12:30:23.170Z,8.48
2023-03-30T12:33:00.506Z,7.72
2023-03-30T12:35:49.449Z,8.13
2023-03-30T12:38:21.810Z,8.45
2023-03-30T12:41:03.168Z,8.05
2023-03-30T12:43:47.873Z,8.25
2023-03-30T12:46:52.976Z,7.88
2023-03-30T12:49:46.612Z,7.75
2023-03-30T12:52:33.724Z,8.25
2023-03-30T12:55:22.715Z,8.40
2023-03-30T12:58:04.954Z,8.07
2023-03-30T13:03:36.963Z,7.82
2023-03-30T13:06:10.629Z,7.30
2023-03-30T13:08:42.393Z,8.13
2023-03-30T13:11:32.545Z,8.40
2023-03-30T13:14:14.272Z,8.90
2023-03-30T13:16:50.751Z,8.43
2023-03-30T13:19:33.573Z,8.25
2023-03-30T13:22:13.139Z,8.15
2023-03-30T13:24:45.952Z,8.15
2023-03-30T13:27:19.049Z,7.20
2023-03-30T13:29:55.161Z,8.38
2023-03-30T13:32:50.337Z,7.80
2023-03-30T13:35:26.813Z,8.00
2023-03-30T13:38:17.825Z,8.10
2023-03-30T13:41:07.210Z,8.60
2023-03-30T13:44:05.491Z,8.23
2023-03-30T13:46:41.884Z,7.97
2023-03-30T13:49:18.779Z,8.35
2023-03-30T13:51:46.901Z,7.80
2023-03-30T13:54:21.931Z,8.18
2023-03-30T13:56:58.157Z,8.27
2023-03-30T13:59:31.481Z,8.68
2023-03-30T14:02:01.051Z,9.30
2023-03-30T14:04:34.206Z,8.50
2023-03-30T14:07:22.234Z,8.43
2023-03-30T14:10:22.240Z,8.82
2023-03-30T14:12:55.157Z,8.95
2023-03-30T14:15:27.500Z,8.65
2023-03-30T14:17:59.195Z,9.07
2023-03-30T14:20:43.580Z,8.27
2023-03-30T14:23:19.264Z,8.63
2023-03-30T14:25:46.540Z,8.50
2023-03-30T14:28:15.514Z,8.75
2023-03-30T14:30:54.721Z,8.77
2023-03-30T14:33:23.241Z,8.50
2023-03-30T14:35:52.305Z,9.75
2023-03-30T14:38:30.297Z,9.27
2023-03-30T14:40:58.562Z,8.75
2023-03-30T14:43:30.210Z,9.43
2023-03-30T14:46:02.725Z,9.18
2023-03-30T14:48:37.657Z,8.63
2023-03-30T14:51:37.239Z,10.07
2023-03-30T14:54:06.299Z,9.88
2023-03-30T14:56:33.859Z,9.10
2023-03-30T14:59:02.523Z,9.40
2023-03-30T15:01:32.274Z,9.52
2023-03-30T15:04:11.121Z,9.65
2023-03-30T15:06:38.684Z,9.25
2023-03-30T15:09:14.740Z,9.63
2023-03-30T15:11:44.635Z,10.07
2023-03-30T15:14:19.118Z,9.18
2023-03-30T15:16:50.593Z,8.90
2023-03-30T15:19:31.995Z,9.63
2023-03-30T15:22:03.366Z,9.77
2023-03-30T15:24:36.105Z,9.30
2023-03-30T15:27:06.993Z,9.23
2023-03-30T15:29:34.520Z,9.52
2023-03-30T15:32:28.556Z,9.25
2023-03-30T15:35:07.144Z,9.35
2023-03-30T15:37:35.752Z,9.63
2023-03-30T15:40:24.683Z,10.45
2023-03-30T15:43:15.116Z,9.85
2023-03-30T15:45:55.700Z,10.13
2023-03-30T15:48:36.001Z,10.60
2023-03-30T15:51:07.799Z,11.20
2023-03-30T15:53:41.421Z,10.50
2023-03-30T15:56:21.365Z,11.48
2023-03-30T15:58:50.020Z,11.45
2023-03-30T16:01:17.577Z,11.02
2023-03-30T16:03:55.822Z,10.48
2023-03-30T16:06:23.956Z,11.10
2023-03-30T16:08:51.306Z,11.00
2023-03-30T16:11:20.693Z,11.18
2023-03-30T16:13:48.733Z,11.45
2023-03-30T16:16:18.437Z,10.68
2023-03-30T16:18:46.090Z,10.68
2023-03-30T16:21:13.480Z,11.18
2023-03-30T16:23:41.031Z,11.00
2023-03-30T16:26:12.202Z,10.50
2023-03-30T16:28:42.525Z,10.57
2023-03-30T16:31:16.109Z,11.40
2023-03-30T16:33:44.377Z,10.30
2023-03-30T16:36:17.316Z,10.77
2023-03-30T16:38:45.302Z,10.85
2023-03-30T16:41:18.304Z,11.27
2023-03-30T16:43:46.166Z,9.88
2023-03-30T16:46:15.608Z,10.30
2023-03-30T16:48:43.357Z,10.85
2023-03-30T16:51:12.841Z,9.95
2023-03-30T16:53:41.660Z,10.98
2023-03-30T16:56:18.813Z,10.23
2023-03-30T16:58:46.838Z,10.77
2023-03-30T17:01:18.376Z,10.35
2023-03-30T17:03:46.893Z,10.27
2023-03-30T17:06:16.270Z,10.98
2023-03-30T17:08:43.615Z,10.32
2023-03-30T17:11:13.370Z,10.27
2023-03-30T17:13:41.249Z,9.85
2023-03-30T17:16:12.447Z,11.55
2023-03-30T17:18:40.053Z,10.63
2023-03-30T17:21:09.628Z,10.52
2023-03-30T17:23:37.059Z,11.23
2023-03-30T17:26:04.372Z,11.35
2023-03-30T17:28:34.524Z,11.07
2023-03-30T17:31:04.251Z,10.98
2023-03-30T17:33:32.048Z,10.57
2023-03-30T17:36:07.050Z,10.45
2023-03-30T17:38:34.525Z,10.18
2023-03-30T17:41:01.858Z,10.07
2023-03-30T17:43:29.214Z,10.75
2023-03-30T17:45:56.656Z,10.23
2023-03-30T17:48:25.379Z,10.27
2023-03-30T17:50:52.732Z,9.38
2023-03-30T17:53:21.249Z,9.65
2023-03-30T17:55:52.373Z,9.95
2023-03-30T17:58:25.894Z,9.17
2023-03-30T18:00:53.583Z,9.35
2023-03-30T18:03:22.555Z,9.73
2023-03-30T18:05:50.613Z,9.05
2023-03-30T18:08:21.359Z,9.48
2023-03-30T18:10:51.613Z,10.05
2023-03-30T18:13:20.864Z,9.27
2023-03-30T18:15:50.190Z,9.05
2023-03-30T18:18:22.983Z,10.18
2023-03-30T18:21:05.388Z,9.18
2023-03-30T18:23:37.260Z,9.07
2023-03-30T18:26:09.490Z,9.60
2023-03-30T18:28:43.776Z,8.57
2023-03-30T18:31:11.950Z,9.77
2023-03-30T18:33:39.612Z,9.10
2023-03-30T18:36:12.970Z,9.65
2023-03-30T18:38:41.144Z,10.00
2023-03-30T18:41:12.314Z,10.18
2023-03-30T18:43:39.684Z,10.90
2023-03-30T18:46:09.669Z,10.85
2023-03-30T18:48:37.187Z,10.52
2023-03-30T18:51:04.480Z,11.48
2023-03-30T18:53:31.815Z,11.25
2023-03-30T18:56:00.539Z,11.57
2023-03-30T18:58:41.696Z,11.98
2023-03-30T19:01:09.652Z,11.00
2023-03-30T19:03:37.166Z,11.18
2023-03-30T19:06:05.000Z,11.48
2023-03-30T19:08:32.885Z,11.73
2023-03-30T19:11:00.337Z,12.30
2023-03-30T19:13:27.726Z,11.43
2023-03-30T19:15:56.315Z,11.77
2023-03-30T19:18:23.691Z,11.15
2023-03-30T19:20:51.934Z,12.15
2023-03-30T19:23:24.360Z,12.00
2023-03-30T19:25:52.178Z,13.23
2023-03-30T19:28:19.586Z,14.40
2023-03-30T19:30:47.422Z,11.82
2023-03-30T19:33:16.707Z,13.32
2023-03-30T19:35:45.589Z,12.07
2023-03-30T19:38:13.714Z,10.43
2023-03-30T19:40:41.472Z,11.68
2023-03-30T19:43:09.380Z,11.95
2023-03-30T19:45:37.245Z,11.50
2023-03-30T19:48:05.029Z,12.43
2023-03-30T19:50:32.704Z,13.48
2023-03-30T19:53:00.092Z,14.20
2023-03-30T19:55:27.921Z,14.27
2023-03-30T19:57:55.786Z,13.35
2023-03-30T20:00:23.830Z,13.38
2023-03-30T20:02:53.564Z,14.30
2023-03-30T20:05:23.510Z,13.80
2023-03-30T20:07:51.558Z,14.27
2023-03-30T20:10:24.633Z,13.95
2023-03-30T20:12:53.034Z,13.85
2023-03-30T20:15:23.877Z,13.65
2023-03-30T20:17:56.379Z,13.18
2023-03-30T20:20:25.528Z,13.63
2023-03-30T20:22:56.399Z,14.25
2023-03-30T20:25:24.861Z,14.45
2023-03-30T20:27:53.233Z,13.60
2023-03-30T20:30:21.093Z,13.80
2023-03-30T20:33:03.688Z,13.68
2023-03-30T20:35:35.899Z,13.77
2023-03-30T20:38:04.654Z,13.70
2023-03-30T20:40:32.820Z,13.63
2023-03-30T20:43:03.574Z,13.80
2023-03-30T20:45:31.941Z,14.35
2023-03-30T20:48:16.189Z,14.48
2023-03-30T20:50:43.640Z,14.13
2023-03-30T20:53:11.045Z,14.23
2023-03-30T20:55:38.311Z,14.30
2023-03-30T20:58:05.782Z,14.75
2023-03-30T21:00:33.159Z,13.77
2023-03-30T21:03:01.824Z,14.32
2023-03-30T21:05:29.236Z,14.73
2023-03-30T21:07:59.249Z,13.80
2023-03-30T21:10:27.541Z,13.63
2023-03-30T21:12:54.835Z,13.43
2023-03-30T21:15:22.139Z,13.65
2023-03-30T21:17:49.776Z,14.27
2023-03-30T21:20:17.816Z,13.77
2023-03-30T21:22:45.148Z,14.45
2023-03-30T21:25:13.971Z,14.05
2023-03-30T21:27:41.357Z,14.25
2023-03-30T21:30:12.140Z,14.43
2023-03-30T21:32:39.553Z,13.70
2023-03-30T21:35:07.089Z,14.82
2023-03-30T21:37:34.450Z,14.63
2023-03-30T21:40:01.823Z,13.98
2023-03-30T21:42:29.124Z,15.18
2023-03-30T21:44:56.396Z,14.65
2023-03-30T21:47:23.775Z,15.25
2023-03-30T21:49:52.226Z,14.30
2023-03-30T21:52:19.680Z,14.35
2023-03-30T21:54:46.911Z,14.70
2023-03-30T21:57:14.339Z,15.32
2023-03-30T21:59:41.742Z,14.82
2023-03-30T22:02:09.077Z,14.95
2023-03-30T22:04:36.532Z,14.45
2023-03-30T22:07:04.624Z,14.68
2023-03-30T22:09:31.897Z,13.88
2023-03-30T22:11:59.344Z,15.25
2023-03-30T22:14:26.697Z,14.60
2023-03-30T22:16:54.095Z,15.13
2023-03-30T22:19:24.708Z,14.90
2023-03-30T22:21:52.062Z,14.77
2023-03-30T22:24:20.271Z,14.65
2023-03-30T22:26:49.190Z,14.90
2023-03-30T22:29:17.312Z,14.73
2023-03-30T22:31:44.647Z,14.68
2023-03-30T22:34:12.062Z,15.55
2023-03-30T22:36:39.474Z,14.95
2023-03-30T22:39:06.820Z,15.20
2023-03-30T22:41:34.186Z,14.80
2023-03-30T22:44:01.541Z,14.52
2023-03-30T22:46:28.872Z,15.68
2023-03-30T22:48:56.339Z,16.48
2023-03-30T22:51:27.399Z,15.45
2023-03-30T22:53:58.658Z,15.38
2023-03-30T22:56:27.740Z,15.65
2023-03-30T22:58:55.421Z,15.25
2023-03-30T23:01:23.350Z,16.02
2023-03-30T23:03:52.933Z,15.43
2023-03-30T23:06:20.498Z,15.27
2023-03-30T23:08:48.695Z,14.38
2023-03-30T23:11:16.979Z,15.02
2023-03-30T23:13:44.474Z,15.30
2023-03-30T23:16:11.842Z,14.98
2023-03-30T23:18:39.507Z,15.52
2023-03-30T23:21:08.248Z,15.40
2023-03-30T23:23:36.781Z,14.98
2023-03-30T23:26:08.800Z,15.13
2023-03-30T23:28:39.005Z,14.32
2023-03-30T23:31:12.190Z,15.52
2023-03-30T23:33:43.502Z,15.30
2023-03-30T23:36:16.949Z,15.88
2023-03-30T23:38:45.417Z,15.30
2023-03-30T23:41:15.007Z,15.43
2023-03-30T23:43:43.070Z,16.00
2023-03-30T23:46:10.929Z,15.52
2023-03-30T23:48:38.589Z,15.27
2023-03-30T23:51:06.761Z,15.32
2023-03-30T23:53:34.231Z,15.90
2023-03-30T23:56:06.237Z,16.13
2023-03-30T23:58:33.798Z,15.23
